Aviation Digital Data Service (ADDS)

Output produced by METARs form (1243 UTC 25 July 2017)
found at http://bcaws.aviationweather.gov/adds/metars/
 
METAR text: KO22 251235Z AUTO 00000KT 10SM FEW065 16/09 A2996 RMK AO1
Conditions at: KO22 (COLUMBIA , CA, US) observed 1235 UTC 25 July 2017
Temperature: 16.0°C (61°F)
Dewpoint: 9.0°C (48°F) [RH = 63%]
Pressure (altimeter): 29.96 inches Hg (1014.6 mb)
Winds: calm
Visibility: 10 or more miles (16+ km)
Ceiling: at least 12,000 feet AGL
Clouds: few clouds at 6500 feet AGL
Weather: automated observation with no human augmentation;
there may or may not be significant weather present at this time